sensor_id;sensor_type;location;lat;lon;timestamp;P1;durP1;ratioP1;P2;durP2;ratioP2
52918;SDS011;38793;52.690;6.812;2023-04-25T00:02:17;19.93;;;4.03;;
52918;SDS011;38793;52.690;6.812;2023-04-25T00:04:43;19.87;;;4.97;;
52918;SDS011;38793;52.690;6.812;2023-04-25T00:07:08;27.10;;;5.47;;
52918;SDS011;38793;52.690;6.812;2023-04-25T00:09:34;27.23;;;4.38;;
52918;SDS011;38793;52.690;6.812;2023-04-25T00:11:59;27.48;;;6.00;;
52918;SDS011;38793;52.690;6.812;2023-04-25T00:14:26;21.35;;;3.05;;
52918;SDS011;38793;52.690;6.812;2023-04-25T00:16:52;21.92;;;5.07;;
52918;SDS011;38793;52.690;6.812;2023-04-25T00:21:44;21.67;;;5.47;;
52918;SDS011;38793;52.690;6.812;2023-04-25T00:26:37;17.67;;;3.53;;
52918;SDS011;38793;52.690;6.812;2023-04-25T00:29:02;18.65;;;4.32;;
52918;SDS011;38793;52.690;6.812;2023-04-25T00:31:28;21.15;;;4.60;;
52918;SDS011;38793;52.690;6.812;2023-04-25T00:33:54;17.20;;;3.58;;
52918;SDS011;38793;52.690;6.812;2023-04-25T00:36:20;21.77;;;4.23;;
52918;SDS011;38793;52.690;6.812;2023-04-25T00:38:45;19.73;;;4.00;;
52918;SDS011;38793;52.690;6.812;2023-04-25T00:41:12;13.35;;;4.07;;
52918;SDS011;38793;52.690;6.812;2023-04-25T00:43:38;17.27;;;4.07;;
52918;SDS011;38793;52.690;6.812;2023-04-25T00:46:05;15.82;;;3.97;;
52918;SDS011;38793;52.690;6.812;2023-04-25T00:48:30;14.53;;;3.70;;
52918;SDS011;38793;52.690;6.812;2023-04-25T00:50:56;13.67;;;3.53;;
52918;SDS011;38793;52.690;6.812;2023-04-25T00:53:24;14.07;;;3.15;;
52918;SDS011;38793;52.690;6.812;2023-04-25T00:55:51;13.85;;;3.45;;
52918;SDS011;38793;52.690;6.812;2023-04-25T01:00:47;16.98;;;3.70;;
52918;SDS011;38793;52.690;6.812;2023-04-25T01:03:14;15.48;;;3.75;;
52918;SDS011;38793;52.690;6.812;2023-04-25T01:05:45;21.02;;;4.82;;
52918;SDS011;38793;52.690;6.812;2023-04-25T01:08:12;17.00;;;4.60;;
52918;SDS011;38793;52.690;6.812;2023-04-25T01:13:03;15.50;;;3.08;;
52918;SDS011;38793;52.690;6.812;2023-04-25T01:15:30;20.73;;;4.28;;
52918;SDS011;38793;52.690;6.812;2023-04-25T01:17:56;14.57;;;4.53;;
52918;SDS011;38793;52.690;6.812;2023-04-25T01:20:23;13.73;;;4.95;;
52918;SDS011;38793;52.690;6.812;2023-04-25T01:22:50;23.38;;;5.13;;
52918;SDS011;38793;52.690;6.812;2023-04-25T01:25:18;18.13;;;3.65;;
52918;SDS011;38793;52.690;6.812;2023-04-25T01:27:44;18.63;;;4.13;;
52918;SDS011;38793;52.690;6.812;2023-04-25T01:30:10;17.58;;;4.30;;
52918;SDS011;38793;52.690;6.812;2023-04-25T01:32:36;20.10;;;6.10;;
52918;SDS011;38793;52.690;6.812;2023-04-25T01:35:08;19.60;;;4.95;;
52918;SDS011;38793;52.690;6.812;2023-04-25T01:37:42;19.20;;;4.22;;
52918;SDS011;38793;52.690;6.812;2023-04-25T01:40:09;19.52;;;3.83;;
52918;SDS011;38793;52.690;6.812;2023-04-25T01:42:37;18.52;;;4.53;;
52918;SDS011;38793;52.690;6.812;2023-04-25T01:45:05;17.92;;;4.25;;
52918;SDS011;38793;52.690;6.812;2023-04-25T01:47:31;15.88;;;4.28;;
52918;SDS011;38793;52.690;6.812;2023-04-25T01:49:57;20.77;;;3.97;;
52918;SDS011;38793;52.690;6.812;2023-04-25T01:52:23;15.65;;;3.70;;
52918;SDS011;38793;52.690;6.812;2023-04-25T01:54:49;22.77;;;5.77;;
52918;SDS011;38793;52.690;6.812;2023-04-25T01:57:15;17.92;;;3.92;;
52918;SDS011;38793;52.690;6.812;2023-04-25T01:59:43;16.07;;;3.70;;
52918;SDS011;38793;52.690;6.812;2023-04-25T02:02:08;17.67;;;3.70;;
52918;SDS011;38793;52.690;6.812;2023-04-25T02:04:34;17.20;;;3.15;;
52918;SDS011;38793;52.690;6.812;2023-04-25T02:07:00;16.30;;;3.20;;
52918;SDS011;38793;52.690;6.812;2023-04-25T02:09:26;30.37;;;4.77;;
52918;SDS011;38793;52.690;6.812;2023-04-25T02:11:52;19.17;;;4.05;;
52918;SDS011;38793;52.690;6.812;2023-04-25T02:14:17;16.70;;;4.53;;
52918;SDS011;38793;52.690;6.812;2023-04-25T02:16:43;19.40;;;4.13;;
52918;SDS011;38793;52.690;6.812;2023-04-25T02:19:09;18.55;;;4.05;;
52918;SDS011;38793;52.690;6.812;2023-04-25T02:21:35;18.73;;;5.32;;
52918;SDS011;38793;52.690;6.812;2023-04-25T02:24:01;14.23;;;4.13;;
52918;SDS011;38793;52.690;6.812;2023-04-25T02:26:28;22.08;;;4.53;;
52918;SDS011;38793;52.690;6.812;2023-04-25T02:28:54;21.60;;;4.75;;
52918;SDS011;38793;52.690;6.812;2023-04-25T02:31:19;20.60;;;5.70;;
52918;SDS011;38793;52.690;6.812;2023-04-25T02:33:45;19.00;;;4.27;;
52918;SDS011;38793;52.690;6.812;2023-04-25T02:36:11;22.55;;;4.40;;
52918;SDS011;38793;52.690;6.812;2023-04-25T02:38:36;16.87;;;4.10;;
52918;SDS011;38793;52.690;6.812;2023-04-25T02:41:02;29.17;;;5.55;;
52918;SDS011;38793;52.690;6.812;2023-04-25T02:43:28;24.57;;;5.30;;
52918;SDS011;38793;52.690;6.812;2023-04-25T02:45:53;26.83;;;5.23;;
52918;SDS011;38793;52.690;6.812;2023-04-25T02:48:19;20.17;;;4.00;;
52918;SDS011;38793;52.690;6.812;2023-04-25T02:50:45;21.23;;;3.83;;
52918;SDS011;38793;52.690;6.812;2023-04-25T02:53:10;18.58;;;4.22;;
52918;SDS011;38793;52.690;6.812;2023-04-25T02:55:36;23.60;;;4.97;;
52918;SDS011;38793;52.690;6.812;2023-04-25T02:58:02;18.30;;;4.40;;
52918;SDS011;38793;52.690;6.812;2023-04-25T03:00:27;16.87;;;4.37;;
52918;SDS011;38793;52.690;6.812;2023-04-25T03:02:53;17.83;;;3.27;;
52918;SDS011;38793;52.690;6.812;2023-04-25T03:05:20;20.92;;;4.05;;
52918;SDS011;38793;52.690;6.812;2023-04-25T03:07:46;21.70;;;3.77;;
52918;SDS011;38793;52.690;6.812;2023-04-25T03:10:11;26.30;;;4.17;;
52918;SDS011;38793;52.690;6.812;2023-04-25T03:12:37;16.77;;;3.53;;
52918;SDS011;38793;52.690;6.812;2023-04-25T03:15:03;20.60;;;4.83;;
52918;SDS011;38793;52.690;6.812;2023-04-25T03:17:29;14.27;;;3.83;;
52918;SDS011;38793;52.690;6.812;2023-04-25T03:19:55;15.68;;;3.40;;
52918;SDS011;38793;52.690;6.812;2023-04-25T03:22:21;23.13;;;4.10;;
52918;SDS011;38793;52.690;6.812;2023-04-25T03:24:47;27.33;;;4.18;;
52918;SDS011;38793;52.690;6.812;2023-04-25T03:27:12;18.07;;;2.83;;
52918;SDS011;38793;52.690;6.812;2023-04-25T03:29:38;14.68;;;2.67;;
52918;SDS011;38793;52.690;6.812;2023-04-25T03:32:05;17.88;;;3.25;;
52918;SDS011;38793;52.690;6.812;2023-04-25T03:34:31;20.47;;;2.67;;
52918;SDS011;38793;52.690;6.812;2023-04-25T03:36:56;10.60;;;2.17;;
52918;SDS011;38793;52.690;6.812;2023-04-25T03:39:22;14.43;;;3.13;;
52918;SDS011;38793;52.690;6.812;2023-04-25T03:41:48;12.70;;;1.80;;
52918;SDS011;38793;52.690;6.812;2023-04-25T03:44:13;13.27;;;2.30;;
52918;SDS011;38793;52.690;6.812;2023-04-25T03:46:39;12.75;;;1.88;;
52918;SDS011;38793;52.690;6.812;2023-04-25T03:49:05;20.55;;;2.88;;
52918;SDS011;38793;52.690;6.812;2023-04-25T03:51:31;10.38;;;2.20;;
52918;SDS011;38793;52.690;6.812;2023-04-25T03:53:56;15.73;;;3.27;;
52918;SDS011;38793;52.690;6.812;2023-04-25T03:56:22;8.53;;;1.50;;
52918;SDS011;38793;52.690;6.812;2023-04-25T03:58:47;16.00;;;3.53;;
52918;SDS011;38793;52.690;6.812;2023-04-25T04:01:13;23.07;;;2.27;;
52918;SDS011;38793;52.690;6.812;2023-04-25T04:03:39;10.30;;;2.00;;
52918;SDS011;38793;52.690;6.812;2023-04-25T04:06:05;10.13;;;1.73;;
52918;SDS011;38793;52.690;6.812;2023-04-25T04:10:57;8.43;;;2.42;;
52918;SDS011;38793;52.690;6.812;2023-04-25T04:13:25;10.07;;;2.72;;
52918;SDS011;38793;52.690;6.812;2023-04-25T04:15:51;9.50;;;1.25;;
52918;SDS011;38793;52.690;6.812;2023-04-25T04:18:17;10.27;;;2.30;;
52918;SDS011;38793;52.690;6.812;2023-04-25T04:20:42;9.17;;;1.03;;
52918;SDS011;38793;52.690;6.812;2023-04-25T04:23:08;8.97;;;2.43;;
52918;SDS011;38793;52.690;6.812;2023-04-25T04:25:34;8.73;;;2.03;;
52918;SDS011;38793;52.690;6.812;2023-04-25T04:28:00;7.82;;;1.15;;
52918;SDS011;38793;52.690;6.812;2023-04-25T04:30:26;5.25;;;1.17;;
52918;SDS011;38793;52.690;6.812;2023-04-25T04:32:54;10.27;;;1.17;;
52918;SDS011;38793;52.690;6.812;2023-04-25T04:35:21;8.05;;;1.05;;
52918;SDS011;38793;52.690;6.812;2023-04-25T04:37:47;5.78;;;1.02;;
52918;SDS011;38793;52.690;6.812;2023-04-25T04:40:13;8.40;;;1.00;;
52918;SDS011;38793;52.690;6.812;2023-04-25T04:42:41;16.35;;;1.20;;
52918;SDS011;38793;52.690;6.812;2023-04-25T04:45:12;6.65;;;0.77;;
52918;SDS011;38793;52.690;6.812;2023-04-25T04:47:38;5.47;;;0.60;;
52918;SDS011;38793;52.690;6.812;2023-04-25T04:50:05;3.97;;;0.55;;
52918;SDS011;38793;52.690;6.812;2023-04-25T04:52:33;8.15;;;0.65;;
52918;SDS011;38793;52.690;6.812;2023-04-25T04:55:00;9.23;;;1.17;;
52918;SDS011;38793;52.690;6.812;2023-04-25T04:57:27;5.27;;;1.13;;
52918;SDS011;38793;52.690;6.812;2023-04-25T04:59:53;11.60;;;0.90;;
52918;SDS011;38793;52.690;6.812;2023-04-25T05:02:18;9.27;;;1.30;;
52918;SDS011;38793;52.690;6.812;2023-04-25T05:04:44;4.18;;;1.35;;
52918;SDS011;38793;52.690;6.812;2023-04-25T05:07:10;7.13;;;1.42;;
52918;SDS011;38793;52.690;6.812;2023-04-25T05:09:36;4.85;;;0.65;;
52918;SDS011;38793;52.690;6.812;2023-04-25T05:12:02;11.85;;;1.30;;
52918;SDS011;38793;52.690;6.812;2023-04-25T05:14:28;9.75;;;1.20;;
52918;SDS011;38793;52.690;6.812;2023-04-25T05:16:53;6.88;;;1.35;;
52918;SDS011;38793;52.690;6.812;2023-04-25T05:19:19;7.10;;;2.27;;
52918;SDS011;38793;52.690;6.812;2023-04-25T05:21:45;11.97;;;1.47;;
52918;SDS011;38793;52.690;6.812;2023-04-25T05:24:10;6.57;;;1.50;;
52918;SDS011;38793;52.690;6.812;2023-04-25T05:26:36;15.03;;;2.20;;
52918;SDS011;38793;52.690;6.812;2023-04-25T05:29:02;6.60;;;1.48;;
52918;SDS011;38793;52.690;6.812;2023-04-25T05:31:28;12.10;;;1.90;;
52918;SDS011;38793;52.690;6.812;2023-04-25T05:33:53;17.07;;;1.47;;
52918;SDS011;38793;52.690;6.812;2023-04-25T05:36:19;9.13;;;1.23;;
52918;SDS011;38793;52.690;6.812;2023-04-25T05:38:45;8.38;;;1.08;;
52918;SDS011;38793;52.690;6.812;2023-04-25T05:41:10;8.82;;;2.00;;
52918;SDS011;38793;52.690;6.812;2023-04-25T05:43:36;11.07;;;2.00;;
52918;SDS011;38793;52.690;6.812;2023-04-25T05:46:01;6.37;;;1.93;;
52918;SDS011;38793;52.690;6.812;2023-04-25T05:48:27;9.67;;;1.37;;
52918;SDS011;38793;52.690;6.812;2023-04-25T05:50:53;8.30;;;1.23;;
52918;SDS011;38793;52.690;6.812;2023-04-25T05:53:19;7.37;;;1.10;;
52918;SDS011;38793;52.690;6.812;2023-04-25T05:55:46;13.02;;;1.77;;
52918;SDS011;38793;52.690;6.812;2023-04-25T05:58:12;12.02;;;2.13;;
52918;SDS011;38793;52.690;6.812;2023-04-25T06:00:38;15.35;;;3.38;;
52918;SDS011;38793;52.690;6.812;2023-04-25T06:03:03;7.87;;;1.20;;
52918;SDS011;38793;52.690;6.812;2023-04-25T06:05:29;14.40;;;2.30;;
52918;SDS011;38793;52.690;6.812;2023-04-25T06:07:55;12.32;;;1.77;;
52918;SDS011;38793;52.690;6.812;2023-04-25T06:10:21;14.63;;;2.10;;
52918;SDS011;38793;52.690;6.812;2023-04-25T06:12:47;15.90;;;2.63;;
52918;SDS011;38793;52.690;6.812;2023-04-25T06:15:13;17.23;;;2.28;;
52918;SDS011;38793;52.690;6.812;2023-04-25T06:17:40;12.68;;;2.60;;
52918;SDS011;38793;52.690;6.812;2023-04-25T06:20:06;13.57;;;1.83;;
52918;SDS011;38793;52.690;6.812;2023-04-25T06:22:33;9.52;;;1.52;;
52918;SDS011;38793;52.690;6.812;2023-04-25T06:24:58;6.73;;;1.00;;
52918;SDS011;38793;52.690;6.812;2023-04-25T06:27:25;12.43;;;2.03;;
52918;SDS011;38793;52.690;6.812;2023-04-25T06:29:51;20.55;;;2.35;;
52918;SDS011;38793;52.690;6.812;2023-04-25T06:32:16;12.97;;;1.33;;
52918;SDS011;38793;52.690;6.812;2023-04-25T06:37:08;15.75;;;1.52;;
52918;SDS011;38793;52.690;6.812;2023-04-25T06:39:34;7.60;;;1.20;;
52918;SDS011;38793;52.690;6.812;2023-04-25T06:42:00;9.82;;;1.98;;
52918;SDS011;38793;52.690;6.812;2023-04-25T06:44:25;17.57;;;2.40;;
52918;SDS011;38793;52.690;6.812;2023-04-25T06:46:51;12.00;;;1.17;;
52918;SDS011;38793;52.690;6.812;2023-04-25T06:49:17;9.88;;;1.17;;
52918;SDS011;38793;52.690;6.812;2023-04-25T06:51:42;9.48;;;1.52;;
52918;SDS011;38793;52.690;6.812;2023-04-25T06:54:08;8.32;;;1.73;;
52918;SDS011;38793;52.690;6.812;2023-04-25T06:56:34;17.50;;;2.37;;
52918;SDS011;38793;52.690;6.812;2023-04-25T06:58:59;13.18;;;2.15;;
52918;SDS011;38793;52.690;6.812;2023-04-25T07:01:25;10.35;;;1.42;;
52918;SDS011;38793;52.690;6.812;2023-04-25T07:03:51;11.20;;;1.52;;
52918;SDS011;38793;52.690;6.812;2023-04-25T07:06:17;10.37;;;1.27;;
52918;SDS011;38793;52.690;6.812;2023-04-25T07:08:42;6.83;;;1.37;;
52918;SDS011;38793;52.690;6.812;2023-04-25T07:11:08;8.67;;;1.27;;
52918;SDS011;38793;52.690;6.812;2023-04-25T07:13:34;13.57;;;1.73;;
52918;SDS011;38793;52.690;6.812;2023-04-25T07:15:59;6.30;;;0.70;;
52918;SDS011;38793;52.690;6.812;2023-04-25T07:18:25;3.37;;;0.90;;
52918;SDS011;38793;52.690;6.812;2023-04-25T07:20:50;8.50;;;1.90;;
52918;SDS011;38793;52.690;6.812;2023-04-25T07:23:16;8.90;;;1.70;;
52918;SDS011;38793;52.690;6.812;2023-04-25T07:25:42;9.03;;;1.80;;
52918;SDS011;38793;52.690;6.812;2023-04-25T07:28:07;7.70;;;1.43;;
52918;SDS011;38793;52.690;6.812;2023-04-25T07:30:33;12.07;;;1.53;;
52918;SDS011;38793;52.690;6.812;2023-04-25T07:32:59;7.05;;;1.25;;
52918;SDS011;38793;52.690;6.812;2023-04-25T07:35:25;21.90;;;1.60;;
52918;SDS011;38793;52.690;6.812;2023-04-25T07:37:51;7.63;;;1.02;;
52918;SDS011;38793;52.690;6.812;2023-04-25T07:40:16;11.10;;;1.37;;
52918;SDS011;38793;52.690;6.812;2023-04-25T07:42:42;8.47;;;0.83;;
52918;SDS011;38793;52.690;6.812;2023-04-25T07:45:08;7.50;;;0.60;;
52918;SDS011;38793;52.690;6.812;2023-04-25T07:47:34;11.68;;;1.13;;
52918;SDS011;38793;52.690;6.812;2023-04-25T07:50:00;5.47;;;0.95;;
52918;SDS011;38793;52.690;6.812;2023-04-25T07:52:26;6.15;;;1.08;;
52918;SDS011;38793;52.690;6.812;2023-04-25T07:54:51;7.93;;;0.70;;
52918;SDS011;38793;52.690;6.812;2023-04-25T07:57:17;11.50;;;1.20;;
52918;SDS011;38793;52.690;6.812;2023-04-25T07:59:44;9.80;;;1.23;;
52918;SDS011;38793;52.690;6.812;2023-04-25T08:02:10;12.07;;;1.55;;
52918;SDS011;38793;52.690;6.812;2023-04-25T08:04:35;9.90;;;1.37;;
52918;SDS011;38793;52.690;6.812;2023-04-25T08:07:01;8.47;;;0.70;;
52918;SDS011;38793;52.690;6.812;2023-04-25T08:09:27;8.17;;;1.17;;
52918;SDS011;38793;52.690;6.812;2023-04-25T08:11:52;3.80;;;0.50;;
52918;SDS011;38793;52.690;6.812;2023-04-25T08:14:18;6.28;;;1.42;;
52918;SDS011;38793;52.690;6.812;2023-04-25T08:16:44;6.53;;;0.57;;
52918;SDS011;38793;52.690;6.812;2023-04-25T08:19:10;4.85;;;0.77;;
52918;SDS011;38793;52.690;6.812;2023-04-25T08:21:36;8.90;;;0.60;;
52918;SDS011;38793;52.690;6.812;2023-04-25T08:24:02;4.53;;;0.95;;
52918;SDS011;38793;52.690;6.812;2023-04-25T08:26:28;6.55;;;0.50;;
52918;SDS011;38793;52.690;6.812;2023-04-25T08:31:19;8.45;;;1.08;;
52918;SDS011;38793;52.690;6.812;2023-04-25T08:33:45;5.93;;;0.45;;
52918;SDS011;38793;52.690;6.812;2023-04-25T08:36:11;7.00;;;0.63;;
52918;SDS011;38793;52.690;6.812;2023-04-25T08:38:36;7.87;;;1.07;;
52918;SDS011;38793;52.690;6.812;2023-04-25T08:41:02;8.07;;;0.60;;
52918;SDS011;38793;52.690;6.812;2023-04-25T08:43:29;10.77;;;1.50;;
52918;SDS011;38793;52.690;6.812;2023-04-25T08:45:58;6.80;;;0.40;;
52918;SDS011;38793;52.690;6.812;2023-04-25T08:48:28;5.90;;;0.50;;
52918;SDS011;38793;52.690;6.812;2023-04-25T08:50:56;4.78;;;0.60;;
52918;SDS011;38793;52.690;6.812;2023-04-25T08:53:27;5.93;;;0.93;;
52918;SDS011;38793;52.690;6.812;2023-04-25T08:55:54;5.53;;;0.40;;
52918;SDS011;38793;52.690;6.812;2023-04-25T08:58:21;6.97;;;1.17;;
52918;SDS011;38793;52.690;6.812;2023-04-25T09:00:48;8.70;;;0.75;;
52918;SDS011;38793;52.690;6.812;2023-04-25T09:03:14;6.70;;;1.17;;
52918;SDS011;38793;52.690;6.812;2023-04-25T09:05:41;5.15;;;0.80;;
52918;SDS011;38793;52.690;6.812;2023-04-25T09:08:07;9.25;;;0.60;;
52918;SDS011;38793;52.690;6.812;2023-04-25T09:10:33;2.70;;;0.52;;
52918;SDS011;38793;52.690;6.812;2023-04-25T09:13:05;5.75;;;0.93;;
52918;SDS011;38793;52.690;6.812;2023-04-25T09:18:23;3.70;;;0.73;;
52918;SDS011;38793;52.690;6.812;2023-04-25T09:20:51;2.25;;;0.32;;
52918;SDS011;38793;52.690;6.812;2023-04-25T09:39:20;6.28;;;0.50;;
52918;SDS011;38793;52.690;6.812;2023-04-25T09:42:43;3.38;;;0.40;;
52918;SDS011;38793;52.690;6.812;2023-04-25T09:45:46;2.63;;;0.70;;
52918;SDS011;38793;52.690;6.812;2023-04-25T09:48:50;6.10;;;1.00;;
52918;SDS011;38793;52.690;6.812;2023-04-25T10:06:01;2.10;;;0.40;;
52918;SDS011;38793;52.690;6.812;2023-04-25T10:08:50;2.58;;;0.35;;
52918;SDS011;38793;52.690;6.812;2023-04-25T10:11:53;2.65;;;0.30;;
52918;SDS011;38793;52.690;6.812;2023-04-25T10:14:21;1.85;;;0.40;;
52918;SDS011;38793;52.690;6.812;2023-04-25T10:17:25;1.42;;;0.30;;
52918;SDS011;38793;52.690;6.812;2023-04-25T10:19:55;3.22;;;0.45;;
52918;SDS011;38793;52.690;6.812;2023-04-25T10:35:57;2.42;;;0.28;;
52918;SDS011;38793;52.690;6.812;2023-04-25T10:39:04;5.75;;;0.40;;
52918;SDS011;38793;52.690;6.812;2023-04-25T10:48:33;5.45;;;1.58;;
52918;SDS011;38793;52.690;6.812;2023-04-25T10:58:12;4.43;;;0.82;;
52918;SDS011;38793;52.690;6.812;2023-04-25T11:04:40;6.45;;;0.80;;
52918;SDS011;38793;52.690;6.812;2023-04-25T11:10:31;4.25;;;0.40;;
52918;SDS011;38793;52.690;6.812;2023-04-25T11:13:00;6.10;;;0.45;;
52918;SDS011;38793;52.690;6.812;2023-04-25T11:16:03;8.48;;;0.73;;
52918;SDS011;38793;52.690;6.812;2023-04-25T11:19:23;6.60;;;0.50;;
52918;SDS011;38793;52.690;6.812;2023-04-25T11:21:49;7.53;;;0.60;;
52918;SDS011;38793;52.690;6.812;2023-04-25T11:24:18;4.70;;;1.65;;
52918;SDS011;38793;52.690;6.812;2023-04-25T11:26:46;8.95;;;1.10;;
52918;SDS011;38793;52.690;6.812;2023-04-25T11:29:13;7.13;;;1.00;;
52918;SDS011;38793;52.690;6.812;2023-04-25T11:31:39;4.17;;;0.70;;
52918;SDS011;38793;52.690;6.812;2023-04-25T11:34:08;5.00;;;1.20;;
52918;SDS011;38793;52.690;6.812;2023-04-25T11:36:34;7.93;;;0.60;;
52918;SDS011;38793;52.690;6.812;2023-04-25T11:39:03;7.85;;;0.80;;
52918;SDS011;38793;52.690;6.812;2023-04-25T11:41:30;5.30;;;1.08;;
52918;SDS011;38793;52.690;6.812;2023-04-25T11:43:56;3.73;;;0.77;;
52918;SDS011;38793;52.690;6.812;2023-04-25T11:46:22;6.38;;;0.52;;
52918;SDS011;38793;52.690;6.812;2023-04-25T11:48:47;8.77;;;1.00;;
52918;SDS011;38793;52.690;6.812;2023-04-25T11:51:15;6.53;;;0.47;;
52918;SDS011;38793;52.690;6.812;2023-04-25T11:53:41;5.03;;;0.95;;
52918;SDS011;38793;52.690;6.812;2023-04-25T11:56:09;4.60;;;0.70;;
52918;SDS011;38793;52.690;6.812;2023-04-25T12:06:49;7.28;;;1.35;;
52918;SDS011;38793;52.690;6.812;2023-04-25T12:09:17;15.65;;;0.80;;
52918;SDS011;38793;52.690;6.812;2023-04-25T12:11:52;4.88;;;0.68;;
52918;SDS011;38793;52.690;6.812;2023-04-25T12:14:23;7.72;;;0.88;;
52918;SDS011;38793;52.690;6.812;2023-04-25T12:16:54;2.70;;;0.50;;
52918;SDS011;38793;52.690;6.812;2023-04-25T12:19:22;5.45;;;0.85;;
52918;SDS011;38793;52.690;6.812;2023-04-25T12:21:48;8.50;;;1.05;;
52918;SDS011;38793;52.690;6.812;2023-04-25T12:26:48;2.60;;;0.50;;
52918;SDS011;38793;52.690;6.812;2023-04-25T12:29:17;5.88;;;0.60;;
52918;SDS011;38793;52.690;6.812;2023-04-25T12:31:44;7.70;;;1.15;;
52918;SDS011;38793;52.690;6.812;2023-04-25T12:34:10;2.47;;;0.60;;
52918;SDS011;38793;52.690;6.812;2023-04-25T12:36:36;5.95;;;1.65;;
52918;SDS011;38793;52.690;6.812;2023-04-25T12:39:02;9.27;;;0.50;;
52918;SDS011;38793;52.690;6.812;2023-04-25T12:41:29;4.07;;;0.40;;
52918;SDS011;38793;52.690;6.812;2023-04-25T12:43:55;5.57;;;0.93;;
52918;SDS011;38793;52.690;6.812;2023-04-25T12:46:21;6.00;;;0.77;;
52918;SDS011;38793;52.690;6.812;2023-04-25T12:48:47;2.83;;;0.60;;
52918;SDS011;38793;52.690;6.812;2023-04-25T12:51:13;6.28;;;0.68;;
52918;SDS011;38793;52.690;6.812;2023-04-25T12:53:39;5.40;;;0.50;;
52918;SDS011;38793;52.690;6.812;2023-04-25T12:58:32;4.97;;;0.65;;
52918;SDS011;38793;52.690;6.812;2023-04-25T13:03:24;5.65;;;0.38;;
52918;SDS011;38793;52.690;6.812;2023-04-25T13:05:50;2.85;;;0.30;;
52918;SDS011;38793;52.690;6.812;2023-04-25T13:08:17;3.38;;;0.30;;
52918;SDS011;38793;52.690;6.812;2023-04-25T13:10:43;4.50;;;0.65;;
52918;SDS011;38793;52.690;6.812;2023-04-25T13:13:09;4.13;;;0.77;;
52918;SDS011;38793;52.690;6.812;2023-04-25T13:15:34;2.80;;;0.67;;
52918;SDS011;38793;52.690;6.812;2023-04-25T13:18:00;3.75;;;0.85;;
52918;SDS011;38793;52.690;6.812;2023-04-25T13:20:26;8.95;;;1.15;;
52918;SDS011;38793;52.690;6.812;2023-04-25T13:22:51;6.20;;;0.60;;
52918;SDS011;38793;52.690;6.812;2023-04-25T13:25:17;4.07;;;0.40;;
52918;SDS011;38793;52.690;6.812;2023-04-25T13:27:43;2.25;;;0.40;;
52918;SDS011;38793;52.690;6.812;2023-04-25T13:30:09;10.02;;;0.40;;
52918;SDS011;38793;52.690;6.812;2023-04-25T13:32:36;3.95;;;0.95;;
52918;SDS011;38793;52.690;6.812;2023-04-25T13:35:06;3.92;;;0.45;;
52918;SDS011;38793;52.690;6.812;2023-04-25T13:37:36;4.30;;;0.57;;
52918;SDS011;38793;52.690;6.812;2023-04-25T13:40:03;3.90;;;0.40;;
52918;SDS011;38793;52.690;6.812;2023-04-25T13:42:31;3.72;;;0.88;;
52918;SDS011;38793;52.690;6.812;2023-04-25T13:44:57;8.23;;;0.65;;
52918;SDS011;38793;52.690;6.812;2023-04-25T13:47:23;4.07;;;0.60;;
52918;SDS011;38793;52.690;6.812;2023-04-25T13:49:49;3.65;;;0.77;;
52918;SDS011;38793;52.690;6.812;2023-04-25T13:52:15;2.35;;;0.20;;
52918;SDS011;38793;52.690;6.812;2023-04-25T13:54:41;3.90;;;0.25;;
52918;SDS011;38793;52.690;6.812;2023-04-25T13:57:06;4.85;;;0.43;;
52918;SDS011;38793;52.690;6.812;2023-04-25T13:59:32;4.50;;;0.60;;
52918;SDS011;38793;52.690;6.812;2023-04-25T14:01:58;5.82;;;0.63;;
52918;SDS011;38793;52.690;6.812;2023-04-25T14:04:24;4.78;;;0.43;;
52918;SDS011;38793;52.690;6.812;2023-04-25T14:06:50;7.70;;;1.38;;
52918;SDS011;38793;52.690;6.812;2023-04-25T14:09:16;6.45;;;0.50;;
52918;SDS011;38793;52.690;6.812;2023-04-25T14:11:42;3.47;;;0.45;;
52918;SDS011;38793;52.690;6.812;2023-04-25T14:14:08;4.90;;;0.95;;
52918;SDS011;38793;52.690;6.812;2023-04-25T14:16:34;0.77;;;0.17;;
52918;SDS011;38793;52.690;6.812;2023-04-25T14:19:00;2.25;;;0.25;;
52918;SDS011;38793;52.690;6.812;2023-04-25T14:21:26;3.55;;;0.30;;
52918;SDS011;38793;52.690;6.812;2023-04-25T14:23:53;6.20;;;0.40;;
52918;SDS011;38793;52.690;6.812;2023-04-25T14:26:19;3.10;;;0.38;;
52918;SDS011;38793;52.690;6.812;2023-04-25T14:28:44;5.18;;;0.52;;
52918;SDS011;38793;52.690;6.812;2023-04-25T14:31:10;6.30;;;0.40;;
52918;SDS011;38793;52.690;6.812;2023-04-25T14:33:36;4.60;;;0.40;;
52918;SDS011;38793;52.690;6.812;2023-04-25T14:36:04;2.38;;;0.50;;
52918;SDS011;38793;52.690;6.812;2023-04-25T14:38:30;4.78;;;0.52;;
52918;SDS011;38793;52.690;6.812;2023-04-25T14:40:56;3.65;;;0.30;;
52918;SDS011;38793;52.690;6.812;2023-04-25T14:43:21;5.45;;;0.73;;
52918;SDS011;38793;52.690;6.812;2023-04-25T14:45:47;3.80;;;0.33;;
52918;SDS011;38793;52.690;6.812;2023-04-25T14:48:13;2.33;;;0.40;;
52918;SDS011;38793;52.690;6.812;2023-04-25T14:50:38;7.68;;;0.47;;
52918;SDS011;38793;52.690;6.812;2023-04-25T14:53:04;5.65;;;0.40;;
52918;SDS011;38793;52.690;6.812;2023-04-25T14:55:30;5.40;;;0.40;;
52918;SDS011;38793;52.690;6.812;2023-04-25T14:57:56;6.70;;;0.90;;
52918;SDS011;38793;52.690;6.812;2023-04-25T15:00:21;3.00;;;0.53;;
52918;SDS011;38793;52.690;6.812;2023-04-25T15:02:48;6.97;;;0.90;;
52918;SDS011;38793;52.690;6.812;2023-04-25T15:07:40;5.57;;;0.77;;
52918;SDS011;38793;52.690;6.812;2023-04-25T15:10:08;3.47;;;0.65;;
52918;SDS011;38793;52.690;6.812;2023-04-25T15:12:44;7.63;;;0.73;;
52918;SDS011;38793;52.690;6.812;2023-04-25T15:15:11;7.18;;;1.05;;
52918;SDS011;38793;52.690;6.812;2023-04-25T15:20:03;6.00;;;0.60;;
52918;SDS011;38793;52.690;6.812;2023-04-25T15:22:30;6.07;;;1.30;;
52918;SDS011;38793;52.690;6.812;2023-04-25T15:24:56;5.47;;;1.07;;
52918;SDS011;38793;52.690;6.812;2023-04-25T15:27:21;10.02;;;0.90;;
52918;SDS011;38793;52.690;6.812;2023-04-25T15:32:13;2.70;;;0.88;;
52918;SDS011;38793;52.690;6.812;2023-04-25T15:34:39;9.30;;;0.80;;
52918;SDS011;38793;52.690;6.812;2023-04-25T15:37:06;10.40;;;0.97;;
52918;SDS011;38793;52.690;6.812;2023-04-25T15:39:31;5.78;;;3.55;;
52918;SDS011;38793;52.690;6.812;2023-04-25T15:41:57;6.77;;;0.70;;
52918;SDS011;38793;52.690;6.812;2023-04-25T15:44:23;7.78;;;0.88;;
52918;SDS011;38793;52.690;6.812;2023-04-25T15:46:49;8.40;;;1.23;;
52918;SDS011;38793;52.690;6.812;2023-04-25T15:49:15;5.72;;;1.23;;
52918;SDS011;38793;52.690;6.812;2023-04-25T15:51:40;7.57;;;1.13;;
52918;SDS011;38793;52.690;6.812;2023-04-25T15:54:06;11.55;;;1.05;;
52918;SDS011;38793;52.690;6.812;2023-04-25T15:56:32;6.22;;;0.90;;
52918;SDS011;38793;52.690;6.812;2023-04-25T15:58:57;6.00;;;0.95;;
52918;SDS011;38793;52.690;6.812;2023-04-25T16:01:23;3.80;;;1.13;;
52918;SDS011;38793;52.690;6.812;2023-04-25T16:03:50;9.88;;;1.05;;
52918;SDS011;38793;52.690;6.812;2023-04-25T16:08:42;9.60;;;1.33;;
52918;SDS011;38793;52.690;6.812;2023-04-25T16:11:08;7.90;;;0.70;;
52918;SDS011;38793;52.690;6.812;2023-04-25T16:13:33;2.80;;;0.65;;
52918;SDS011;38793;52.690;6.812;2023-04-25T16:16:00;6.95;;;0.90;;
52918;SDS011;38793;52.690;6.812;2023-04-25T16:18:26;4.97;;;1.02;;
52918;SDS011;38793;52.690;6.812;2023-04-25T16:20:51;3.35;;;0.68;;
52918;SDS011;38793;52.690;6.812;2023-04-25T16:23:17;8.13;;;1.35;;
52918;SDS011;38793;52.690;6.812;2023-04-25T16:25:43;6.68;;;1.08;;
52918;SDS011;38793;52.690;6.812;2023-04-25T16:28:09;7.15;;;0.80;;
52918;SDS011;38793;52.690;6.812;2023-04-25T16:30:35;4.57;;;0.50;;
52918;SDS011;38793;52.690;6.812;2023-04-25T16:33:01;6.20;;;1.08;;
52918;SDS011;38793;52.690;6.812;2023-04-25T16:35:26;5.53;;;0.63;;